sensor_id;sensor_type;location;lat;lon;timestamp;P1;durP1;ratioP1;P2;durP2;ratioP2
56860;SDS011;42744;51.094;3.490;2022-10-29T00:00:40;16.47;;;8.13;;
56860;SDS011;42744;51.094;3.490;2022-10-29T00:03:06;16.47;;;9.70;;
56860;SDS011;42744;51.094;3.490;2022-10-29T00:05:33;17.33;;;8.50;;
56860;SDS011;42744;51.094;3.490;2022-10-29T00:07:59;11.73;;;7.67;;
56860;SDS011;42744;51.094;3.490;2022-10-29T00:10:25;15.90;;;8.07;;
56860;SDS011;42744;51.094;3.490;2022-10-29T00:12:51;16.73;;;9.23;;
56860;SDS011;42744;51.094;3.490;2022-10-29T00:15:17;22.07;;;8.97;;
56860;SDS011;42744;51.094;3.490;2022-10-29T00:17:46;16.37;;;8.00;;
56860;SDS011;42744;51.094;3.490;2022-10-29T00:20:12;17.10;;;8.80;;
56860;SDS011;42744;51.094;3.490;2022-10-29T00:22:38;14.13;;;7.50;;
56860;SDS011;42744;51.094;3.490;2022-10-29T00:25:04;12.70;;;7.60;;
56860;SDS011;42744;51.094;3.490;2022-10-29T00:27:30;9.73;;;7.50;;
56860;SDS011;42744;51.094;3.490;2022-10-29T00:29:56;17.77;;;9.30;;
56860;SDS011;42744;51.094;3.490;2022-10-29T00:32:22;25.60;;;11.87;;
56860;SDS011;42744;51.094;3.490;2022-10-29T00:34:48;14.97;;;9.60;;
56860;SDS011;42744;51.094;3.490;2022-10-29T00:37:14;18.67;;;10.10;;
56860;SDS011;42744;51.094;3.490;2022-10-29T00:39:40;17.57;;;9.07;;
56860;SDS011;42744;51.094;3.490;2022-10-29T00:42:11;17.97;;;9.07;;
56860;SDS011;42744;51.094;3.490;2022-10-29T00:44:39;14.37;;;7.60;;
56860;SDS011;42744;51.094;3.490;2022-10-29T00:49:42;12.10;;;8.27;;
56860;SDS011;42744;51.094;3.490;2022-10-29T00:52:14;11.47;;;7.67;;
56860;SDS011;42744;51.094;3.490;2022-10-29T00:54:42;15.17;;;8.47;;
56860;SDS011;42744;51.094;3.490;2022-10-29T00:57:13;13.83;;;7.57;;
56860;SDS011;42744;51.094;3.490;2022-10-29T00:59:54;10.23;;;7.80;;
56860;SDS011;42744;51.094;3.490;2022-10-29T01:02:21;10.80;;;6.67;;
56860;SDS011;42744;51.094;3.490;2022-10-29T01:04:47;7.40;;;5.60;;
56860;SDS011;42744;51.094;3.490;2022-10-29T01:07:15;6.97;;;5.93;;
56860;SDS011;42744;51.094;3.490;2022-10-29T01:09:41;7.47;;;6.10;;
56860;SDS011;42744;51.094;3.490;2022-10-29T01:29:48;8.53;;;5.93;;
56860;SDS011;42744;51.094;3.490;2022-10-29T01:35:17;9.43;;;6.30;;
56860;SDS011;42744;51.094;3.490;2022-10-29T01:38:20;10.83;;;6.97;;
56860;SDS011;42744;51.094;3.490;2022-10-29T01:41:24;10.10;;;6.30;;
56860;SDS011;42744;51.094;3.490;2022-10-29T01:47:00;13.53;;;7.47;;
56860;SDS011;42744;51.094;3.490;2022-10-29T01:49:39;8.90;;;6.80;;
56860;SDS011;42744;51.094;3.490;2022-10-29T01:52:09;12.37;;;7.33;;
56860;SDS011;42744;51.094;3.490;2022-10-29T01:54:41;11.30;;;7.10;;
56860;SDS011;42744;51.094;3.490;2022-10-29T01:57:28;9.40;;;6.70;;
56860;SDS011;42744;51.094;3.490;2022-10-29T02:00:11;9.27;;;6.60;;
56860;SDS011;42744;51.094;3.490;2022-10-29T02:03:05;13.03;;;7.13;;
56860;SDS011;42744;51.094;3.490;2022-10-29T02:10:53;9.73;;;6.33;;
56860;SDS011;42744;51.094;3.490;2022-10-29T02:13:30;11.33;;;6.37;;
56860;SDS011;42744;51.094;3.490;2022-10-29T02:15:59;11.17;;;6.83;;
56860;SDS011;42744;51.094;3.490;2022-10-29T02:18:29;10.60;;;7.40;;
56860;SDS011;42744;51.094;3.490;2022-10-29T02:20:55;11.67;;;7.43;;
56860;SDS011;42744;51.094;3.490;2022-10-29T02:23:21;14.17;;;7.57;;
56860;SDS011;42744;51.094;3.490;2022-10-29T02:25:47;14.37;;;7.47;;
56860;SDS011;42744;51.094;3.490;2022-10-29T02:28:13;12.43;;;7.27;;
56860;SDS011;42744;51.094;3.490;2022-10-29T02:30:39;12.50;;;7.67;;
56860;SDS011;42744;51.094;3.490;2022-10-29T02:33:05;11.20;;;7.67;;
56860;SDS011;42744;51.094;3.490;2022-10-29T02:35:31;12.23;;;7.67;;
56860;SDS011;42744;51.094;3.490;2022-10-29T02:37:57;13.13;;;7.73;;
56860;SDS011;42744;51.094;3.490;2022-10-29T02:40:23;11.10;;;6.80;;
56860;SDS011;42744;51.094;3.490;2022-10-29T02:42:49;10.90;;;7.97;;
56860;SDS011;42744;51.094;3.490;2022-10-29T02:45:15;12.27;;;7.33;;
56860;SDS011;42744;51.094;3.490;2022-10-29T02:47:41;10.57;;;7.20;;
56860;SDS011;42744;51.094;3.490;2022-10-29T02:50:07;12.77;;;7.67;;
56860;SDS011;42744;51.094;3.490;2022-10-29T02:52:33;15.97;;;8.90;;
56860;SDS011;42744;51.094;3.490;2022-10-29T02:54:59;16.97;;;8.40;;
56860;SDS011;42744;51.094;3.490;2022-10-29T02:57:25;17.03;;;7.87;;
56860;SDS011;42744;51.094;3.490;2022-10-29T02:59:51;13.80;;;8.27;;
56860;SDS011;42744;51.094;3.490;2022-10-29T03:02:17;18.80;;;8.73;;
56860;SDS011;42744;51.094;3.490;2022-10-29T03:04:43;13.40;;;7.67;;
56860;SDS011;42744;51.094;3.490;2022-10-29T03:07:09;12.67;;;7.77;;
56860;SDS011;42744;51.094;3.490;2022-10-29T03:09:35;12.10;;;7.50;;
56860;SDS011;42744;51.094;3.490;2022-10-29T03:12:01;20.47;;;8.27;;
56860;SDS011;42744;51.094;3.490;2022-10-29T03:14:27;11.47;;;7.57;;
56860;SDS011;42744;51.094;3.490;2022-10-29T03:16:53;15.20;;;7.93;;
56860;SDS011;42744;51.094;3.490;2022-10-29T03:19:19;12.07;;;8.60;;
56860;SDS011;42744;51.094;3.490;2022-10-29T03:21:45;12.67;;;8.20;;
56860;SDS011;42744;51.094;3.490;2022-10-29T03:24:11;13.73;;;8.30;;
56860;SDS011;42744;51.094;3.490;2022-10-29T03:26:37;16.93;;;8.70;;
56860;SDS011;42744;51.094;3.490;2022-10-29T03:29:03;22.57;;;8.43;;
56860;SDS011;42744;51.094;3.490;2022-10-29T03:31:29;24.27;;;8.53;;
56860;SDS011;42744;51.094;3.490;2022-10-29T03:33:55;20.83;;;9.33;;
56860;SDS011;42744;51.094;3.490;2022-10-29T03:36:21;15.33;;;9.57;;
56860;SDS011;42744;51.094;3.490;2022-10-29T03:38:47;16.37;;;9.50;;
56860;SDS011;42744;51.094;3.490;2022-10-29T03:41:13;15.37;;;9.03;;
56860;SDS011;42744;51.094;3.490;2022-10-29T03:43:39;18.23;;;9.87;;
56860;SDS011;42744;51.094;3.490;2022-10-29T03:46:05;17.10;;;9.47;;
56860;SDS011;42744;51.094;3.490;2022-10-29T03:48:31;15.57;;;9.30;;
56860;SDS011;42744;51.094;3.490;2022-10-29T03:50:59;25.97;;;9.50;;
56860;SDS011;42744;51.094;3.490;2022-10-29T03:53:27;19.60;;;9.57;;
56860;SDS011;42744;51.094;3.490;2022-10-29T03:55:54;14.93;;;10.13;;
56860;SDS011;42744;51.094;3.490;2022-10-29T03:58:21;13.73;;;9.33;;
56860;SDS011;42744;51.094;3.490;2022-10-29T04:00:58;18.77;;;8.63;;
56860;SDS011;42744;51.094;3.490;2022-10-29T04:03:26;14.17;;;8.60;;
56860;SDS011;42744;51.094;3.490;2022-10-29T04:05:54;18.47;;;8.70;;
56860;SDS011;42744;51.094;3.490;2022-10-29T04:08:20;13.77;;;9.33;;
56860;SDS011;42744;51.094;3.490;2022-10-29T04:10:47;15.33;;;8.83;;
56860;SDS011;42744;51.094;3.490;2022-10-29T04:13:14;15.10;;;9.97;;
56860;SDS011;42744;51.094;3.490;2022-10-29T04:15:41;18.43;;;9.73;;
56860;SDS011;42744;51.094;3.490;2022-10-29T04:18:07;21.17;;;10.87;;
56860;SDS011;42744;51.094;3.490;2022-10-29T04:20:34;21.53;;;11.87;;
56860;SDS011;42744;51.094;3.490;2022-10-29T04:23:01;17.83;;;10.00;;
56860;SDS011;42744;51.094;3.490;2022-10-29T04:25:27;17.50;;;11.03;;
56860;SDS011;42744;51.094;3.490;2022-10-29T04:27:53;32.70;;;9.30;;
56860;SDS011;42744;51.094;3.490;2022-10-29T04:30:20;15.80;;;9.80;;
56860;SDS011;42744;51.094;3.490;2022-10-29T04:32:46;17.07;;;9.07;;
56860;SDS011;42744;51.094;3.490;2022-10-29T04:35:13;18.77;;;9.77;;
56860;SDS011;42744;51.094;3.490;2022-10-29T04:37:38;14.17;;;9.10;;
56860;SDS011;42744;51.094;3.490;2022-10-29T04:40:05;14.23;;;9.03;;
56860;SDS011;42744;51.094;3.490;2022-10-29T04:42:35;14.33;;;8.97;;
56860;SDS011;42744;51.094;3.490;2022-10-29T04:45:02;13.60;;;8.47;;
56860;SDS011;42744;51.094;3.490;2022-10-29T04:47:29;12.90;;;8.70;;
56860;SDS011;42744;51.094;3.490;2022-10-29T04:49:54;16.63;;;8.30;;
56860;SDS011;42744;51.094;3.490;2022-10-29T04:52:20;15.10;;;8.67;;
56860;SDS011;42744;51.094;3.490;2022-10-29T04:54:47;13.53;;;8.17;;
56860;SDS011;42744;51.094;3.490;2022-10-29T04:57:12;22.40;;;8.60;;
56860;SDS011;42744;51.094;3.490;2022-10-29T04:59:38;21.23;;;8.87;;
56860;SDS011;42744;51.094;3.490;2022-10-29T05:02:04;19.77;;;8.50;;
56860;SDS011;42744;51.094;3.490;2022-10-29T05:04:30;16.43;;;8.50;;
56860;SDS011;42744;51.094;3.490;2022-10-29T05:06:56;15.33;;;7.73;;
56860;SDS011;42744;51.094;3.490;2022-10-29T05:09:22;12.97;;;7.53;;
56860;SDS011;42744;51.094;3.490;2022-10-29T05:11:48;17.00;;;8.33;;
56860;SDS011;42744;51.094;3.490;2022-10-29T05:14:14;18.10;;;8.20;;
56860;SDS011;42744;51.094;3.490;2022-10-29T05:16:40;20.03;;;8.77;;
56860;SDS011;42744;51.094;3.490;2022-10-29T05:19:06;25.47;;;9.33;;
56860;SDS011;42744;51.094;3.490;2022-10-29T05:21:32;18.27;;;8.77;;
56860;SDS011;42744;51.094;3.490;2022-10-29T05:23:58;20.97;;;10.17;;
56860;SDS011;42744;51.094;3.490;2022-10-29T05:26:24;17.10;;;8.60;;
56860;SDS011;42744;51.094;3.490;2022-10-29T05:28:50;20.80;;;9.33;;
56860;SDS011;42744;51.094;3.490;2022-10-29T05:31:16;20.27;;;10.30;;
56860;SDS011;42744;51.094;3.490;2022-10-29T05:33:42;23.33;;;9.43;;
56860;SDS011;42744;51.094;3.490;2022-10-29T05:36:09;21.97;;;9.50;;
56860;SDS011;42744;51.094;3.490;2022-10-29T05:38:35;18.80;;;8.93;;
56860;SDS011;42744;51.094;3.490;2022-10-29T05:41:01;13.73;;;8.80;;
56860;SDS011;42744;51.094;3.490;2022-10-29T05:43:27;18.50;;;9.13;;
56860;SDS011;42744;51.094;3.490;2022-10-29T05:45:54;21.47;;;9.00;;
56860;SDS011;42744;51.094;3.490;2022-10-29T05:48:19;17.40;;;8.70;;
56860;SDS011;42744;51.094;3.490;2022-10-29T05:50:45;21.13;;;8.20;;
56860;SDS011;42744;51.094;3.490;2022-10-29T05:53:12;18.73;;;8.50;;
56860;SDS011;42744;51.094;3.490;2022-10-29T05:55:39;18.63;;;9.00;;
56860;SDS011;42744;51.094;3.490;2022-10-29T05:58:08;16.47;;;9.20;;
56860;SDS011;42744;51.094;3.490;2022-10-29T06:00:36;21.33;;;9.90;;
56860;SDS011;42744;51.094;3.490;2022-10-29T06:03:22;21.67;;;9.93;;
56860;SDS011;42744;51.094;3.490;2022-10-29T06:05:48;28.77;;;9.53;;
56860;SDS011;42744;51.094;3.490;2022-10-29T06:08:15;17.20;;;8.93;;
56860;SDS011;42744;51.094;3.490;2022-10-29T06:10:42;16.33;;;9.00;;
56860;SDS011;42744;51.094;3.490;2022-10-29T06:13:12;15.50;;;9.50;;
56860;SDS011;42744;51.094;3.490;2022-10-29T06:15:40;18.50;;;9.13;;
56860;SDS011;42744;51.094;3.490;2022-10-29T06:18:06;19.20;;;8.73;;
56860;SDS011;42744;51.094;3.490;2022-10-29T06:20:31;15.27;;;9.27;;
56860;SDS011;42744;51.094;3.490;2022-10-29T06:22:58;15.13;;;8.70;;
56860;SDS011;42744;51.094;3.490;2022-10-29T06:25:24;16.67;;;9.27;;
56860;SDS011;42744;51.094;3.490;2022-10-29T06:30:28;17.10;;;9.07;;
56860;SDS011;42744;51.094;3.490;2022-10-29T06:32:55;17.90;;;9.00;;
56860;SDS011;42744;51.094;3.490;2022-10-29T06:35:21;17.57;;;9.17;;
56860;SDS011;42744;51.094;3.490;2022-10-29T06:37:48;15.87;;;9.50;;
56860;SDS011;42744;51.094;3.490;2022-10-29T06:40:14;16.93;;;8.80;;
56860;SDS011;42744;51.094;3.490;2022-10-29T06:42:40;21.23;;;8.90;;
56860;SDS011;42744;51.094;3.490;2022-10-29T06:45:06;13.00;;;9.10;;
56860;SDS011;42744;51.094;3.490;2022-10-29T06:47:39;16.60;;;8.70;;
56860;SDS011;42744;51.094;3.490;2022-10-29T06:50:07;16.47;;;8.60;;
56860;SDS011;42744;51.094;3.490;2022-10-29T06:52:34;22.93;;;9.17;;
56860;SDS011;42744;51.094;3.490;2022-10-29T06:55:01;17.23;;;9.57;;
56860;SDS011;42744;51.094;3.490;2022-10-29T06:57:28;19.77;;;9.80;;
56860;SDS011;42744;51.094;3.490;2022-10-29T06:59:55;22.27;;;13.10;;
56860;SDS011;42744;51.094;3.490;2022-10-29T07:02:21;26.37;;;14.57;;
56860;SDS011;42744;51.094;3.490;2022-10-29T07:04:47;22.43;;;14.53;;
56860;SDS011;42744;51.094;3.490;2022-10-29T07:07:14;24.07;;;12.60;;
56860;SDS011;42744;51.094;3.490;2022-10-29T07:09:39;18.20;;;11.10;;
56860;SDS011;42744;51.094;3.490;2022-10-29T07:12:07;19.47;;;9.80;;
56860;SDS011;42744;51.094;3.490;2022-10-29T07:14:34;19.93;;;9.50;;
56860;SDS011;42744;51.094;3.490;2022-10-29T07:17:00;26.00;;;10.63;;
56860;SDS011;42744;51.094;3.490;2022-10-29T07:19:26;19.70;;;9.03;;
56860;SDS011;42744;51.094;3.490;2022-10-29T07:21:52;15.80;;;9.20;;
56860;SDS011;42744;51.094;3.490;2022-10-29T07:24:17;16.23;;;10.03;;
56860;SDS011;42744;51.094;3.490;2022-10-29T07:26:44;25.23;;;9.90;;
56860;SDS011;42744;51.094;3.490;2022-10-29T07:29:10;21.87;;;10.30;;
56860;SDS011;42744;51.094;3.490;2022-10-29T07:31:35;17.97;;;9.50;;
56860;SDS011;42744;51.094;3.490;2022-10-29T07:34:02;16.43;;;10.00;;
56860;SDS011;42744;51.094;3.490;2022-10-29T07:36:31;20.33;;;9.67;;
56860;SDS011;42744;51.094;3.490;2022-10-29T07:38:57;21.73;;;9.47;;
56860;SDS011;42744;51.094;3.490;2022-10-29T07:41:24;21.43;;;9.73;;
56860;SDS011;42744;51.094;3.490;2022-10-29T07:43:49;18.10;;;9.30;;
56860;SDS011;42744;51.094;3.490;2022-10-29T07:46:15;17.23;;;9.27;;
56860;SDS011;42744;51.094;3.490;2022-10-29T07:48:41;17.67;;;9.60;;
56860;SDS011;42744;51.094;3.490;2022-10-29T07:51:07;19.30;;;9.90;;
56860;SDS011;42744;51.094;3.490;2022-10-29T07:53:33;24.17;;;9.57;;
56860;SDS011;42744;51.094;3.490;2022-10-29T07:55:59;14.67;;;9.00;;
56860;SDS011;42744;51.094;3.490;2022-10-29T07:58:25;22.47;;;9.43;;
56860;SDS011;42744;51.094;3.490;2022-10-29T08:00:51;17.03;;;9.00;;
56860;SDS011;42744;51.094;3.490;2022-10-29T08:03:17;18.50;;;8.53;;
56860;SDS011;42744;51.094;3.490;2022-10-29T08:05:43;12.50;;;8.40;;
56860;SDS011;42744;51.094;3.490;2022-10-29T08:08:11;18.80;;;9.47;;
56860;SDS011;42744;51.094;3.490;2022-10-29T08:10:37;16.77;;;9.10;;
56860;SDS011;42744;51.094;3.490;2022-10-29T08:13:04;13.50;;;8.33;;
56860;SDS011;42744;51.094;3.490;2022-10-29T08:15:31;17.63;;;8.97;;
56860;SDS011;42744;51.094;3.490;2022-10-29T08:17:59;14.63;;;7.90;;
56860;SDS011;42744;51.094;3.490;2022-10-29T08:20:26;17.47;;;8.37;;
56860;SDS011;42744;51.094;3.490;2022-10-29T08:22:52;16.43;;;8.83;;
56860;SDS011;42744;51.094;3.490;2022-10-29T08:25:19;17.13;;;8.73;;
56860;SDS011;42744;51.094;3.490;2022-10-29T08:27:51;13.17;;;8.00;;
56860;SDS011;42744;51.094;3.490;2022-10-29T08:30:23;18.77;;;8.17;;
56860;SDS011;42744;51.094;3.490;2022-10-29T08:32:49;16.07;;;8.57;;
56860;SDS011;42744;51.094;3.490;2022-10-29T08:35:15;14.50;;;8.07;;
56860;SDS011;42744;51.094;3.490;2022-10-29T08:37:42;20.50;;;8.50;;
56860;SDS011;42744;51.094;3.490;2022-10-29T08:40:12;15.70;;;7.80;;
56860;SDS011;42744;51.094;3.490;2022-10-29T08:45:52;12.57;;;7.87;;
56860;SDS011;42744;51.094;3.490;2022-10-29T08:50:58;15.60;;;8.50;;
56860;SDS011;42744;51.094;3.490;2022-10-29T08:53:29;12.67;;;7.83;;
56860;SDS011;42744;51.094;3.490;2022-10-29T08:56:13;14.77;;;8.60;;
56860;SDS011;42744;51.094;3.490;2022-10-29T09:01:29;14.17;;;7.43;;
56860;SDS011;42744;51.094;3.490;2022-10-29T09:03:55;13.73;;;7.63;;
56860;SDS011;42744;51.094;3.490;2022-10-29T09:22:50;15.37;;;6.83;;
56860;SDS011;42744;51.094;3.490;2022-10-29T09:28:19;16.27;;;6.53;;
56860;SDS011;42744;51.094;3.490;2022-10-29T09:33:22;15.73;;;6.13;;
56860;SDS011;42744;51.094;3.490;2022-10-29T09:35:53;13.90;;;6.70;;
56860;SDS011;42744;51.094;3.490;2022-10-29T09:38:43;14.50;;;6.03;;
56860;SDS011;42744;51.094;3.490;2022-10-29T09:41:21;11.40;;;5.63;;
56860;SDS011;42744;51.094;3.490;2022-10-29T09:43:52;12.67;;;5.90;;
56860;SDS011;42744;51.094;3.490;2022-10-29T09:49:29;13.70;;;6.17;;
56860;SDS011;42744;51.094;3.490;2022-10-29T09:52:18;12.80;;;5.20;;
56860;SDS011;42744;51.094;3.490;2022-10-29T09:54:47;10.60;;;5.70;;
56860;SDS011;42744;51.094;3.490;2022-10-29T09:57:19;16.17;;;6.17;;
56860;SDS011;42744;51.094;3.490;2022-10-29T10:00:33;10.67;;;5.53;;
56860;SDS011;42744;51.094;3.490;2022-10-29T10:02:42;11.77;;;5.87;;
56860;SDS011;42744;51.094;3.490;2022-10-29T10:05:25;15.93;;;5.63;;
56860;SDS011;42744;51.094;3.490;2022-10-29T10:08:03;15.93;;;5.90;;
56860;SDS011;42744;51.094;3.490;2022-10-29T10:10:31;12.33;;;5.63;;
56860;SDS011;42744;51.094;3.490;2022-10-29T10:13:05;16.47;;;6.27;;
56860;SDS011;42744;51.094;3.490;2022-10-29T10:15:37;21.37;;;6.13;;
56860;SDS011;42744;51.094;3.490;2022-10-29T10:18:04;12.10;;;5.13;;
56860;SDS011;42744;51.094;3.490;2022-10-29T10:23:19;13.20;;;5.37;;
56860;SDS011;42744;51.094;3.490;2022-10-29T10:25:56;17.30;;;5.63;;
56860;SDS011;42744;51.094;3.490;2022-10-29T10:28:26;15.40;;;5.23;;
56860;SDS011;42744;51.094;3.490;2022-10-29T10:33:42;15.07;;;5.23;;
56860;SDS011;42744;51.094;3.490;2022-10-29T10:36:25;8.30;;;4.50;;
56860;SDS011;42744;51.094;3.490;2022-10-29T10:38:57;12.73;;;4.70;;
56860;SDS011;42744;51.094;3.490;2022-10-29T10:41:26;15.50;;;4.25;;
56860;SDS011;42744;51.094;3.490;2022-10-29T10:43:56;14.15;;;4.60;;
56860;SDS011;42744;51.094;3.490;2022-10-29T10:46:26;14.93;;;4.65;;
56860;SDS011;42744;51.094;3.490;2022-10-29T10:48:57;10.57;;;4.55;;
56860;SDS011;42744;51.094;3.490;2022-10-29T10:51:31;10.15;;;4.72;;
56860;SDS011;42744;51.094;3.490;2022-10-29T10:54:02;12.13;;;4.40;;
56860;SDS011;42744;51.094;3.490;2022-10-29T10:56:30;9.65;;;4.37;;
56860;SDS011;42744;51.094;3.490;2022-10-29T10:58:59;14.63;;;4.25;;
56860;SDS011;42744;51.094;3.490;2022-10-29T11:04:13;13.15;;;4.47;;
56860;SDS011;42744;51.094;3.490;2022-10-29T11:06:48;12.77;;;4.82;;
56860;SDS011;42744;51.094;3.490;2022-10-29T11:09:18;9.73;;;4.22;;
56860;SDS011;42744;51.094;3.490;2022-10-29T11:12:01;12.23;;;3.45;;
56860;SDS011;42744;51.094;3.490;2022-10-29T11:14:31;12.98;;;3.78;;
56860;SDS011;42744;51.094;3.490;2022-10-29T11:17:01;11.95;;;3.95;;
56860;SDS011;42744;51.094;3.490;2022-10-29T11:19:32;13.38;;;4.55;;
56860;SDS011;42744;51.094;3.490;2022-10-29T11:24:52;6.87;;;3.03;;
56860;SDS011;42744;51.094;3.490;2022-10-29T11:30:23;13.40;;;3.97;;
56860;SDS011;42744;51.094;3.490;2022-10-29T11:38:34;18.48;;;4.18;;
56860;SDS011;42744;51.094;3.490;2022-10-29T11:44:20;14.60;;;3.70;;
56860;SDS011;42744;51.094;3.490;2022-10-29T11:52:17;14.07;;;4.07;;
56860;SDS011;42744;51.094;3.490;2022-10-29T11:54:58;10.40;;;3.85;;
56860;SDS011;42744;51.094;3.490;2022-10-29T11:58:01;12.65;;;4.70;;
56860;SDS011;42744;51.094;3.490;2022-10-29T12:01:08;7.50;;;3.67;;
56860;SDS011;42744;51.094;3.490;2022-10-29T12:03:45;11.48;;;4.10;;
56860;SDS011;42744;51.094;3.490;2022-10-29T12:11:52;13.13;;;3.12;;
56860;SDS011;42744;51.094;3.490;2022-10-29T12:14:32;8.93;;;3.62;;
56860;SDS011;42744;51.094;3.490;2022-10-29T12:17:13;6.65;;;2.90;;
56860;SDS011;42744;51.094;3.490;2022-10-29T12:23:06;15.50;;;3.47;;
56860;SDS011;42744;51.094;3.490;2022-10-29T12:25:22;12.60;;;3.72;;
56860;SDS011;42744;51.094;3.490;2022-10-29T12:28:08;12.00;;;4.45;;
56860;SDS011;42744;51.094;3.490;2022-10-29T12:31:34;10.13;;;2.80;;
56860;SDS011;42744;51.094;3.490;2022-10-29T12:34:13;16.73;;;4.43;;
56860;SDS011;42744;51.094;3.490;2022-10-29T12:39:34;9.82;;;3.55;;
56860;SDS011;42744;51.094;3.490;2022-10-29T12:42:09;12.73;;;3.90;;
56860;SDS011;42744;51.094;3.490;2022-10-29T12:44:50;18.48;;;3.70;;
56860;SDS011;42744;51.094;3.490;2022-10-29T12:47:32;10.65;;;3.37;;
56860;SDS011;42744;51.094;3.490;2022-10-29T12:55:11;11.15;;;3.50;;
56860;SDS011;42744;51.094;3.490;2022-10-29T12:57:39;10.68;;;3.53;;
56860;SDS011;42744;51.094;3.490;2022-10-29T13:02:50;174.07;;;36.28;;
56860;SDS011;42744;51.094;3.490;2022-10-29T13:16:38;17.10;;;4.32;;
56860;SDS011;42744;51.094;3.490;2022-10-29T13:18:48;7.37;;;3.45;;
56860;SDS011;42744;51.094;3.490;2022-10-29T13:24:21;7.28;;;3.03;;
56860;SDS011;42744;51.094;3.490;2022-10-29T13:30:12;10.70;;;3.70;;
56860;SDS011;42744;51.094;3.490;2022-10-29T13:32:31;9.55;;;3.40;;
56860;SDS011;42744;51.094;3.490;2022-10-29T13:35:45;10.23;;;3.10;;
56860;SDS011;42744;51.094;3.490;2022-10-29T13:37:52;9.63;;;3.95;;
56860;SDS011;42744;51.094;3.490;2022-10-29T13:45:25;6.45;;;2.80;;
56860;SDS011;42744;51.094;3.490;2022-10-29T13:47:57;11.38;;;4.00;;
56860;SDS011;42744;51.094;3.490;2022-10-29T13:50:28;12.27;;;3.20;;
56860;SDS011;42744;51.094;3.490;2022-10-29T13:52:55;12.20;;;4.15;;
56860;SDS011;42744;51.094;3.490;2022-10-29T13:55:23;8.95;;;3.53;;
56860;SDS011;42744;51.094;3.490;2022-10-29T14:00:49;12.95;;;3.72;;
56860;SDS011;42744;51.094;3.490;2022-10-29T14:03:18;9.18;;;3.67;;
56860;SDS011;42744;51.094;3.490;2022-10-29T14:06:10;13.45;;;4.15;;
56860;SDS011;42744;51.094;3.490;2022-10-29T14:08:49;12.43;;;4.07;;
56860;SDS011;42744;51.094;3.490;2022-10-29T14:11:29;9.48;;;4.20;;
56860;SDS011;42744;51.094;3.490;2022-10-29T14:13:58;11.57;;;4.07;;
56860;SDS011;42744;51.094;3.490;2022-10-29T14:16:27;8.52;;;3.50;;
56860;SDS011;42744;51.094;3.490;2022-10-29T14:18:55;9.60;;;3.50;;
56860;SDS011;42744;51.094;3.490;2022-10-29T14:21:29;11.70;;;3.67;;
56860;SDS011;42744;51.094;3.490;2022-10-29T14:24:04;13.10;;;3.58;;
56860;SDS011;42744;51.094;3.490;2022-10-29T14:26:34;15.15;;;3.65;;
56860;SDS011;42744;51.094;3.490;2022-10-29T14:29:18;7.70;;;2.92;;
56860;SDS011;42744;51.094;3.490;2022-10-29T14:34:42;14.80;;;4.47;;
56860;SDS011;42744;51.094;3.490;2022-10-29T14:40:33;11.27;;;3.60;;
56860;SDS011;42744;51.094;3.490;2022-10-29T14:42:53;14.38;;;3.85;;
56860;SDS011;42744;51.094;3.490;2022-10-29T14:47:56;10.10;;;3.75;;
56860;SDS011;42744;51.094;3.490;2022-10-29T14:50:24;11.43;;;3.12;;
56860;SDS011;42744;51.094;3.490;2022-10-29T14:52:52;10.35;;;3.58;;
56860;SDS011;42744;51.094;3.490;2022-10-29T14:55:35;7.78;;;3.25;;
56860;SDS011;42744;51.094;3.490;2022-10-29T14:58:06;17.12;;;3.92;;
56860;SDS011;42744;51.094;3.490;2022-10-29T15:00:53;8.98;;;3.62;;
56860;SDS011;42744;51.094;3.490;2022-10-29T15:03:23;10.88;;;4.10;;
56860;SDS011;42744;51.094;3.490;2022-10-29T15:06:07;10.52;;;3.40;;
56860;SDS011;42744;51.094;3.490;2022-10-29T15:08:39;12.73;;;3.75;;
56860;SDS011;42744;51.094;3.490;2022-10-29T15:13:57;11.57;;;3.85;;
56860;SDS011;42744;51.094;3.490;2022-10-29T15:16:23;8.50;;;3.90;;
56860;SDS011;42744;51.094;3.490;2022-10-29T15:18:49;14.98;;;4.25;;
56860;SDS011;42744;51.094;3.490;2022-10-29T15:21:28;12.13;;;2.87;;
56860;SDS011;42744;51.094;3.490;2022-10-29T15:24:01;9.65;;;3.40;;
56860;SDS011;42744;51.094;3.490;2022-10-29T15:26:30;11.52;;;3.90;;
56860;SDS011;42744;51.094;3.490;2022-10-29T15:29:00;10.43;;;3.80;;
56860;SDS011;42744;51.094;3.490;2022-10-29T15:31:41;13.07;;;4.87;;
56860;SDS011;42744;51.094;3.490;2022-10-29T15:34:15;9.15;;;3.50;;
56860;SDS011;42744;51.094;3.490;2022-10-29T15:36:53;15.20;;;4.35;;
56860;SDS011;42744;51.094;3.490;2022-10-29T15:39:25;11.73;;;3.80;;
56860;SDS011;42744;51.094;3.490;2022-10-29T15:42:02;10.05;;;3.20;;
56860;SDS011;42744;51.094;3.490;2022-10-29T15:45:33;11.63;;;3.10;;
56860;SDS011;42744;51.094;3.490;2022-10-29T15:47:46;9.15;;;3.28;;
56860;SDS011;42744;51.094;3.490;2022-10-29T15:50:15;10.57;;;3.28;;
56860;SDS011;42744;51.094;3.490;2022-10-29T15:53:02;7.87;;;3.03;;
56860;SDS011;42744;51.094;3.490;2022-10-29T15:55:32;17.42;;;4.05;;
56860;SDS011;42744;51.094;3.490;2022-10-29T15:58:04;11.63;;;3.65;;
56860;SDS011;42744;51.094;3.490;2022-10-29T16:00:33;8.82;;;3.25;;
56860;SDS011;42744;51.094;3.490;2022-10-29T16:03:01;9.77;;;3.40;;
56860;SDS011;42744;51.094;3.490;2022-10-29T16:05:42;16.48;;;3.45;;
56860;SDS011;42744;51.094;3.490;2022-10-29T16:08:22;8.32;;;3.28;;
56860;SDS011;42744;51.094;3.490;2022-10-29T16:10:49;13.30;;;4.00;;
56860;SDS011;42744;51.094;3.490;2022-10-29T16:13:15;10.82;;;3.58;;
56860;SDS011;42744;51.094;3.490;2022-10-29T16:15:43;10.77;;;3.58;;
56860;SDS011;42744;51.094;3.490;2022-10-29T16:18:08;15.50;;;3.50;;
56860;SDS011;42744;51.094;3.490;2022-10-29T16:20:35;9.93;;;2.92;;
56860;SDS011;42744;51.094;3.490;2022-10-29T16:23:00;10.60;;;3.87;;
56860;SDS011;42744;51.094;3.490;2022-10-29T16:25:27;12.02;;;4.05;;
56860;SDS011;42744;51.094;3.490;2022-10-29T16:27:53;10.23;;;3.37;;
56860;SDS011;42744;51.094;3.490;2022-10-29T16:30:21;11.35;;;3.90;;
56860;SDS011;42744;51.094;3.490;2022-10-29T16:32:48;11.15;;;3.92;;
56860;SDS011;42744;51.094;3.490;2022-10-29T16:37:49;12.85;;;4.22;;
56860;SDS011;42744;51.094;3.490;2022-10-29T16:40:16;8.43;;;3.30;;
56860;SDS011;42744;51.094;3.490;2022-10-29T16:42:43;11.40;;;3.40;;
56860;SDS011;42744;51.094;3.490;2022-10-29T16:45:17;13.93;;;4.20;;
56860;SDS011;42744;51.094;3.490;2022-10-29T16:47:48;12.20;;;3.70;;
56860;SDS011;42744;51.094;3.490;2022-10-29T16:50:19;12.00;;;4.63;;
56860;SDS011;42744;51.094;3.490;2022-10-29T16:52:58;9.20;;;3.27;;
56860;SDS011;42744;51.094;3.490;2022-10-29T16:55:27;10.32;;;4.32;;
56860;SDS011;42744;51.094;3.490;2022-10-29T16:57:54;13.05;;;3.97;;
56860;SDS011;42744;51.094;3.490;2022-10-29T17:00:20;14.90;;;4.03;;
56860;SDS011;42744;51.094;3.490;2022-10-29T17:02:46;12.57;;;4.40;;
56860;SDS011;42744;51.094;3.490;2022-10-29T17:05:13;12.48;;;4.03;;
56860;SDS011;42744;51.094;3.490;2022-10-29T17:07:39;10.30;;;4.07;;
56860;SDS011;42744;51.094;3.490;2022-10-29T17:10:05;8.27;;;4.00;;
56860;SDS011;42744;51.094;3.490;2022-10-29T17:12:32;13.43;;;4.23;;
56860;SDS011;42744;51.094;3.490;2022-10-29T17:14:58;14.30;;;4.30;;
56860;SDS011;42744;51.094;3.490;2022-10-29T17:17:24;10.23;;;4.27;;
56860;SDS011;42744;51.094;3.490;2022-10-29T17:19:50;14.07;;;5.37;;
56860;SDS011;42744;51.094;3.490;2022-10-29T17:22:18;13.30;;;5.33;;
56860;SDS011;42744;51.094;3.490;2022-10-29T17:24:44;10.33;;;5.40;;
56860;SDS011;42744;51.094;3.490;2022-10-29T17:27:10;13.27;;;4.50;;